createdAt,value
2023-04-18T00:02:16.998Z,16.79
2023-04-18T00:07:20.677Z,16.66
2023-04-18T00:12:24.321Z,16.52
2023-04-18T00:17:29.783Z,15.94
2023-04-18T00:22:33.623Z,15.48
2023-04-18T00:27:37.324Z,15.39
2023-04-18T00:32:42.685Z,15.27
2023-04-18T00:37:46.352Z,15.36
2023-04-18T00:42:49.968Z,14.90
2023-04-18T00:47:56.635Z,14.88
2023-04-18T00:53:00.391Z,14.70
2023-04-18T00:58:04.028Z,14.51
2023-04-18T01:03:09.313Z,14.37
2023-04-18T01:08:13.397Z,14.26
2023-04-18T01:13:18.763Z,14.38
2023-04-18T01:18:24.051Z,14.17
2023-04-18T01:23:27.950Z,13.86
2023-04-18T01:28:37.133Z,13.95
2023-04-18T01:33:40.906Z,14.12
2023-04-18T01:38:44.514Z,14.24
2023-04-18T01:43:49.767Z,14.31
2023-04-18T01:48:53.446Z,14.23
2023-04-18T01:53:57.090Z,14.11
2023-04-18T01:59:02.394Z,14.28
2023-04-18T02:04:06.042Z,14.30
2023-04-18T02:09:09.733Z,14.15
2023-04-18T02:14:15.220Z,13.91
2023-04-18T02:19:18.984Z,13.84
2023-04-18T02:24:23.121Z,13.84
2023-04-18T02:29:29.404Z,13.82
2023-04-18T02:34:33.067Z,13.68
2023-04-18T02:39:36.761Z,13.66
2023-04-18T02:44:42.058Z,13.53
2023-04-18T02:49:45.761Z,13.50
2023-04-18T02:54:49.416Z,13.48
2023-04-18T02:59:54.681Z,13.45
2023-04-18T03:04:58.323Z,13.40
2023-04-18T03:10:02.025Z,13.34
2023-04-18T03:15:08.609Z,13.27
2023-04-18T03:20:12.512Z,13.19
2023-04-18T03:25:16.289Z,13.25
2023-04-18T03:30:21.807Z,13.30
2023-04-18T03:35:25.469Z,13.44
2023-04-18T03:40:29.046Z,13.56
2023-04-18T03:45:34.401Z,13.58
2023-04-18T03:50:38.030Z,13.62
2023-04-18T03:55:42.311Z,13.42
2023-04-18T04:00:47.615Z,13.37
2023-04-18T04:05:51.312Z,13.21
2023-04-18T04:10:54.993Z,13.43
2023-04-18T04:16:00.317Z,13.23
2023-04-18T04:21:05.031Z,13.09
2023-04-18T04:26:08.686Z,13.26
2023-04-18T04:31:13.982Z,13.26
2023-04-18T04:36:18.905Z,13.20
2023-04-18T04:41:22.708Z,12.94
2023-04-18T04:46:28.294Z,13.00
2023-04-18T04:51:32.101Z,13.10
2023-04-18T04:56:35.801Z,12.86
2023-04-18T05:01:41.263Z,13.12
2023-04-18T05:06:45.002Z,13.18
2023-04-18T05:11:48.669Z,12.95
2023-04-18T05:16:53.967Z,12.88
2023-04-18T05:21:57.656Z,12.59
2023-04-18T05:27:01.351Z,12.50
2023-04-18T05:32:07.009Z,12.51
2023-04-18T05:37:10.600Z,12.30
2023-04-18T05:42:14.877Z,12.38
2023-04-18T05:47:20.239Z,12.00
2023-04-18T05:52:24.040Z,11.95
2023-04-18T05:57:27.657Z,11.90
2023-04-18T06:02:32.992Z,12.11
2023-04-18T06:07:36.986Z,12.11
2023-04-18T06:12:40.641Z,12.20
2023-04-18T06:17:45.965Z,12.20
2023-04-18T06:22:49.653Z,12.16
2023-04-18T06:27:53.325Z,12.02
2023-04-18T06:32:58.636Z,12.00
2023-04-18T06:38:02.373Z,11.91
2023-04-18T06:43:06.175Z,11.84
2023-04-18T06:48:11.432Z,11.68
2023-04-18T06:53:15.716Z,11.73
2023-04-18T06:58:19.410Z,11.60
2023-04-18T07:03:24.766Z,11.60
2023-04-18T07:08:28.501Z,11.60
2023-04-18T07:13:32.144Z,11.46
2023-04-18T07:18:38.547Z,11.34
2023-04-18T07:23:42.347Z,11.24
2023-04-18T07:28:45.933Z,11.15
2023-04-18T07:33:51.164Z,11.19
2023-04-18T07:38:54.808Z,10.99
2023-04-18T07:43:58.393Z,10.94
2023-04-18T07:49:03.674Z,10.75
2023-04-18T07:54:07.406Z,10.64
2023-04-18T07:59:11.802Z,10.66
2023-04-18T08:04:17.380Z,10.62
2023-04-18T08:09:21.181Z,10.68
2023-04-18T08:14:25.551Z,10.60
2023-04-18T08:19:30.824Z,10.45
2023-04-18T08:24:34.479Z,10.38
2023-04-18T08:29:38.148Z,10.39
2023-04-18T08:34:44.407Z,10.40
2023-04-18T08:39:47.328Z,10.42
2023-04-18T08:44:51.059Z,10.29
2023-04-18T08:49:56.618Z,10.31
2023-04-18T08:55:00.240Z,10.23
2023-04-18T09:00:04.040Z,10.04
2023-04-18T09:05:14.749Z,9.90
2023-04-18T09:10:27.165Z,9.99
2023-04-18T09:15:31.200Z,10.27
2023-04-18T09:20:39.478Z,10.13
2023-04-18T09:25:45.630Z,10.02
2023-04-18T09:30:48.749Z,9.93
2023-04-18T09:35:54.109Z,9.79
2023-04-18T09:41:08.837Z,9.80
2023-04-18T09:46:12.617Z,9.82
2023-04-18T09:51:18.649Z,9.85
2023-04-18T09:56:26.519Z,9.77
2023-04-18T10:01:30.454Z,9.77
2023-04-18T10:06:36.440Z,9.73
2023-04-18T10:11:40.354Z,9.72
2023-04-18T10:16:45.495Z,9.58
2023-04-18T10:21:55.368Z,9.56
2023-04-18T10:26:59.501Z,9.47
2023-04-18T10:32:07.274Z,9.37
2023-04-18T10:37:12.615Z,9.39
2023-04-18T10:42:16.222Z,9.25
2023-04-18T10:47:21.986Z,9.31
2023-04-18T10:52:28.599Z,9.44
2023-04-18T10:57:39.907Z,9.56
2023-04-18T11:02:51.481Z,9.41
2023-04-18T11:07:57.118Z,9.42
2023-04-18T11:13:01.495Z,9.31
2023-04-18T11:18:06.072Z,9.34
2023-04-18T11:23:19.732Z,9.33
2023-04-18T11:28:23.898Z,9.30
2023-04-18T11:33:29.607Z,9.27
2023-04-18T11:38:34.891Z,9.04
2023-04-18T11:43:38.572Z,9.01
2023-04-18T11:48:43.562Z,8.80
2023-04-18T11:53:48.903Z,8.60
2023-04-18T11:58:52.752Z,8.43
2023-04-18T12:04:04.063Z,8.35
2023-04-18T12:09:14.008Z,8.24
2023-04-18T12:14:23.781Z,8.19
2023-04-18T12:19:28.363Z,8.09
2023-04-18T12:24:33.975Z,8.03
2023-04-18T12:29:37.689Z,7.91
2023-04-18T12:34:41.295Z,7.89
2023-04-18T12:39:46.578Z,7.83
2023-04-18T12:44:50.213Z,7.84
2023-04-18T12:49:53.817Z,7.85
2023-04-18T12:54:59.096Z,7.65
2023-04-18T13:00:02.967Z,7.64
2023-04-18T13:05:08.562Z,7.61
2023-04-18T13:10:15.313Z,7.47
2023-04-18T13:15:18.923Z,7.44
2023-04-18T13:20:22.584Z,7.39
2023-04-18T13:25:28.001Z,7.40
2023-04-18T13:30:31.627Z,7.35
2023-04-18T13:35:36.630Z,7.34
2023-04-18T13:40:41.882Z,7.33
2023-04-18T13:45:45.536Z,7.34
2023-04-18T13:50:49.142Z,7.34
2023-04-18T13:55:54.448Z,7.38
2023-04-18T14:00:58.045Z,7.43
2023-04-18T14:06:01.649Z,7.51
2023-04-18T14:11:07.092Z,7.60
2023-04-18T14:16:10.743Z,7.67
2023-04-18T14:21:14.444Z,7.95
2023-04-18T14:26:19.871Z,8.22
2023-04-18T14:31:23.477Z,8.55
2023-04-18T14:36:27.793Z,9.15
2023-04-18T14:41:33.189Z,9.43
2023-04-18T14:46:36.878Z,9.68
2023-04-18T14:51:40.496Z,9.91
2023-04-18T14:56:45.746Z,10.21
2023-04-18T15:01:49.435Z,10.48
2023-04-18T15:06:53.112Z,10.91
2023-04-18T15:11:58.409Z,11.24
2023-04-18T15:17:02.269Z,11.66
2023-04-18T15:22:05.964Z,12.08
2023-04-18T15:27:12.342Z,12.56
2023-04-18T15:32:16.029Z,12.91
2023-04-18T15:37:19.647Z,13.29
2023-04-18T15:42:24.922Z,13.88
2023-04-18T15:47:28.580Z,14.34
2023-04-18T15:52:32.257Z,14.62
2023-04-18T15:57:37.518Z,15.01
2023-04-18T16:02:41.173Z,15.33
2023-04-18T16:07:44.961Z,15.65
2023-04-18T16:12:50.194Z,16.27
2023-04-18T16:17:53.855Z,16.43
2023-04-18T16:22:57.531Z,16.43
2023-04-18T16:28:02.816Z,16.79
2023-04-18T16:33:06.554Z,17.06
2023-04-18T16:38:10.173Z,16.89
2023-04-18T16:43:15.437Z,16.87
2023-04-18T16:48:19.025Z,17.08
2023-04-18T16:53:23.249Z,17.67
2023-04-18T16:58:28.531Z,17.80
2023-04-18T17:03:32.289Z,17.77
2023-04-18T17:08:36.086Z,18.11
2023-04-18T17:13:41.361Z,18.33
2023-04-18T17:18:45.048Z,18.42
2023-04-18T17:23:48.670Z,18.15
2023-04-18T17:28:54.060Z,18.49
2023-04-18T17:33:57.756Z,18.75
2023-04-18T17:39:01.530Z,18.64
2023-04-18T17:44:07.246Z,18.58
2023-04-18T17:49:10.112Z,18.95
2023-04-18T17:54:13.770Z,19.00
2023-04-18T17:59:19.102Z,18.95
2023-04-18T18:04:25.750Z,19.22
2023-04-18T18:09:30.150Z,19.23
2023-04-18T18:14:35.362Z,19.27
2023-04-18T18:19:38.995Z,18.32
2023-04-18T18:24:42.652Z,17.99
2023-04-18T18:29:47.972Z,17.89
2023-04-18T18:34:51.596Z,18.06
2023-04-18T18:39:55.841Z,18.80
2023-04-18T18:45:01.118Z,18.56
2023-04-18T18:50:05.126Z,19.22
2023-04-18T18:55:09.796Z,19.70
2023-04-18T19:00:15.750Z,19.93
2023-04-18T19:05:19.390Z,20.12
2023-04-18T19:10:22.969Z,20.04
2023-04-18T19:15:28.371Z,20.48
2023-04-18T19:20:31.182Z,20.54
2023-04-18T19:25:34.947Z,20.23
2023-04-18T19:30:40.343Z,20.07
2023-04-18T19:35:43.262Z,19.87
2023-04-18T19:40:47.596Z,19.17
2023-04-18T19:45:55.403Z,19.92
2023-04-18T19:50:59.114Z,20.13
2023-04-18T19:56:02.741Z,19.90
2023-04-18T20:01:08.075Z,20.15
2023-04-18T20:06:11.915Z,20.03
2023-04-18T20:11:15.581Z,20.25
2023-04-18T20:16:21.837Z,20.52
2023-04-18T20:21:25.458Z,20.43
2023-04-18T20:26:29.168Z,20.18
2023-04-18T20:31:34.449Z,19.98
2023-04-18T20:36:38.196Z,20.03
2023-04-18T20:41:41.992Z,20.08
2023-04-18T20:46:47.242Z,20.08
2023-04-18T20:51:50.846Z,19.94
2023-04-18T20:56:54.447Z,19.79
2023-04-18T21:01:59.882Z,19.55
2023-04-18T21:07:02.793Z,19.52
2023-04-18T21:12:07.040Z,19.57
2023-04-18T21:17:12.416Z,19.34
2023-04-18T21:22:16.381Z,18.76
2023-04-18T21:27:20.041Z,19.19
2023-04-18T21:32:25.396Z,19.36
2023-04-18T21:37:29.061Z,19.21
2023-04-18T21:42:32.650Z,19.17
2023-04-18T21:47:38.035Z,19.03
2023-04-18T21:52:41.672Z,18.15
2023-04-18T21:57:45.299Z,18.44
2023-04-18T22:02:50.738Z,18.42
2023-04-18T22:07:58.244Z,18.42
2023-04-18T22:13:03.759Z,18.17
2023-04-18T22:18:09.705Z,18.06
2023-04-18T22:23:13.386Z,17.61
2023-04-18T22:28:17.180Z,17.65
2023-04-18T22:33:22.484Z,17.66
2023-04-18T22:38:26.678Z,17.66
2023-04-18T22:43:30.304Z,17.65
2023-04-18T22:48:37.809Z,17.75
2023-04-18T22:53:41.399Z,17.62
2023-04-18T22:58:45.000Z,17.71
2023-04-18T23:03:50.411Z,17.85
2023-04-18T23:08:53.526Z,17.52
2023-04-18T23:13:57.222Z,17.15
2023-04-18T23:19:02.505Z,16.78
2023-04-18T23:24:06.484Z,16.83
2023-04-18T23:29:10.147Z,16.71
2023-04-18T23:34:15.707Z,16.49
2023-04-18T23:39:18.697Z,16.55
2023-04-18T23:44:22.328Z,16.59
2023-04-18T23:49:28.279Z,16.44
2023-04-18T23:54:31.860Z,16.13
2023-04-18T23:59:35.442Z,16.19
